ACA9737 VHHH-CYVR
Flight info
| Callsign | ACA9737 |
|---|---|
| Flight time | N/A |
| Altitude | 33000 |
| Route | DALOL V631 ENVAR M750 PILOX/N0484F350 M750 IMPAL Y755 CARDS DCT HIOTI DCT CBE Y121 SWING Y88 DAIGO Y889 OATIS OTR3 PUTER A590 PUGAL/N0478F370 A590 POOFF DCT 5600N17901W DCT CJAYY/N0481F390 B757 KATCH DCT POWOL DCT TRENA WHSLR8 |
| Aircraft | B77L/H-SDE1E2E3FGHIJ2J3J4J5M1RWXY/LB1D1 |
Departure
| Time | N/A |
|---|---|
| Airport | Hong Kong International Airport (VHHH) |
Arrival
| Time | 2026-05-05 09:15 |
|---|---|
| Airport | Vancouver International Airport (CYVR) |
| Time | Latitude | Longitude | Altitude | Speed | Heading |
|---|---|---|---|---|---|
| 2026-05-05 07:57 | 53.72318 | -135.00221 | 33042 ft | 512 kts | 120° |
| 2026-05-05 07:57 | 53.70815 | -134.94775 | 33042 ft | 513 kts | 120° |
| 2026-05-05 07:57 | 53.67793 | -134.83866 | 33041 ft | 513 kts | 120° |
| 2026-05-05 07:58 | 53.64763 | -134.72979 | 33036 ft | 514 kts | 120° |
| 2026-05-05 07:58 | 53.61715 | -134.62081 | 33038 ft | 514 kts | 120° |
| 2026-05-05 07:59 | 53.58654 | -134.51190 | 33027 ft | 514 kts | 120° |
| 2026-05-05 07:59 | 53.56105 | -134.42159 | 33012 ft | 514 kts | 120° |
| 2026-05-05 08:00 | 53.52528 | -134.29541 | 33024 ft | 515 kts | 120° |
| 2026-05-05 08:00 | 53.49437 | -134.18694 | 33018 ft | 515 kts | 120° |
| 2026-05-05 08:01 | 53.46856 | -134.09673 | 33020 ft | 515 kts | 120° |
| 2026-05-05 08:01 | 53.43726 | -133.98783 | 32996 ft | 515 kts | 120° |
| 2026-05-05 08:02 | 53.40618 | -133.88020 | 33011 ft | 515 kts | 120° |
| 2026-05-05 08:02 | 53.37484 | -133.77213 | 33017 ft | 516 kts | 120° |
| 2026-05-05 08:03 | 53.34336 | -133.66408 | 32998 ft | 516 kts | 120° |
| 2026-05-05 08:03 | 53.31177 | -133.55615 | 33010 ft | 516 kts | 120° |
| 2026-05-05 08:04 | 53.28006 | -133.44834 | 33012 ft | 517 kts | 120° |
| 2026-05-05 08:04 | 53.24822 | -133.34054 | 33010 ft | 517 kts | 120° |
| 2026-05-05 08:05 | 53.21623 | -133.23273 | 32998 ft | 518 kts | 120° |
| 2026-05-05 08:05 | 53.18436 | -133.12580 | 32990 ft | 518 kts | 120° |
| 2026-05-05 08:06 | 53.15218 | -133.01834 | 32978 ft | 518 kts | 120° |
| 2026-05-05 08:06 | 53.11989 | -132.91096 | 32986 ft | 518 kts | 120° |
| 2026-05-05 08:07 | 53.08749 | -132.80369 | 32980 ft | 519 kts | 120° |
| 2026-05-05 08:07 | 53.05496 | -132.69650 | 32982 ft | 519 kts | 120° |
| 2026-05-05 08:08 | 53.02233 | -132.58950 | 32973 ft | 519 kts | 120° |
| 2026-05-05 08:08 | 52.98963 | -132.48268 | 32980 ft | 519 kts | 120° |
| 2026-05-05 08:09 | 52.95678 | -132.37586 | 32972 ft | 519 kts | 120° |
| 2026-05-05 08:09 | 52.92401 | -132.26980 | 32967 ft | 519 kts | 120° |
| 2026-05-05 08:10 | 52.89093 | -132.16319 | 32956 ft | 519 kts | 120° |
| 2026-05-05 08:10 | 52.85783 | -132.05694 | 32961 ft | 520 kts | 120° |
| 2026-05-05 08:11 | 52.82449 | -131.95042 | 32968 ft | 520 kts | 120° |
| 2026-05-05 08:11 | 52.79135 | -131.84504 | 32958 ft | 521 kts | 120° |
| 2026-05-05 08:12 | 52.75779 | -131.73878 | 32944 ft | 521 kts | 119° |
| 2026-05-05 08:12 | 52.72416 | -131.63270 | 32961 ft | 522 kts | 120° |
| 2026-05-05 08:13 | 52.69035 | -131.52653 | 32965 ft | 523 kts | 120° |
| 2026-05-05 08:13 | 52.65647 | -131.42065 | 32957 ft | 523 kts | 120° |
| 2026-05-05 08:14 | 52.62244 | -131.31475 | 32954 ft | 523 kts | 120° |
| 2026-05-05 08:14 | 52.58829 | -131.20891 | 32955 ft | 524 kts | 120° |
| 2026-05-05 08:15 | 52.55401 | -131.10312 | 32960 ft | 524 kts | 120° |
| 2026-05-05 08:15 | 52.51958 | -130.99736 | 32952 ft | 525 kts | 120° |
| 2026-05-05 08:16 | 52.48506 | -130.89175 | 32941 ft | 525 kts | 120° |
| 2026-05-05 08:16 | 52.45046 | -130.78635 | 32950 ft | 525 kts | 120° |
| 2026-05-05 08:17 | 52.41572 | -130.68097 | 32952 ft | 526 kts | 120° |
| 2026-05-05 08:17 | 52.38087 | -130.57574 | 32950 ft | 526 kts | 120° |
| 2026-05-05 08:18 | 52.34610 | -130.47118 | 32938 ft | 526 kts | 120° |
| 2026-05-05 08:18 | 52.31100 | -130.36606 | 32960 ft | 526 kts | 120° |
| 2026-05-05 08:19 | 52.27586 | -130.26126 | 32946 ft | 527 kts | 120° |
| 2026-05-05 08:19 | 52.24050 | -130.15629 | 32955 ft | 527 kts | 120° |
| 2026-05-05 08:20 | 52.20507 | -130.05151 | 32947 ft | 528 kts | 120° |
| 2026-05-05 08:20 | 52.16947 | -129.94669 | 32942 ft | 528 kts | 120° |
| 2026-05-05 08:21 | 52.13378 | -129.84203 | 32945 ft | 529 kts | 120° |
| 2026-05-05 08:21 | 52.09791 | -129.73729 | 32942 ft | 529 kts | 120° |
| 2026-05-05 08:22 | 52.06218 | -129.63341 | 32942 ft | 529 kts | 120° |
| 2026-05-05 08:22 | 52.02613 | -129.52902 | 32950 ft | 530 kts | 120° |
| 2026-05-05 08:23 | 51.98996 | -129.42471 | 32944 ft | 530 kts | 120° |
| 2026-05-05 08:23 | 51.95371 | -129.32063 | 32942 ft | 530 kts | 120° |
| 2026-05-05 08:24 | 51.91731 | -129.21652 | 32937 ft | 530 kts | 120° |
| 2026-05-05 08:24 | 51.88085 | -129.11269 | 32935 ft | 530 kts | 120° |
| 2026-05-05 08:25 | 51.84427 | -129.00894 | 32935 ft | 530 kts | 120° |
| 2026-05-05 08:25 | 51.80787 | -128.90613 | 32939 ft | 530 kts | 121° |
| 2026-05-05 08:26 | 51.77113 | -128.80279 | 32929 ft | 530 kts | 120° |
| 2026-05-05 08:26 | 51.73431 | -128.69966 | 32942 ft | 531 kts | 120° |
| 2026-05-05 08:27 | 51.69734 | -128.59650 | 32940 ft | 531 kts | 120° |
| 2026-05-05 08:27 | 51.66012 | -128.49305 | 32604 ft | 538 kts | 120° |
| 2026-05-05 08:28 | 51.64114 | -128.44048 | 32094 ft | 547 kts | 121° |
| 2026-05-05 08:28 | 51.62190 | -128.38729 | 31606 ft | 553 kts | 120° |
| 2026-05-05 08:28 | 51.60243 | -128.33360 | 31167 ft | 553 kts | 120° |
| 2026-05-05 08:28 | 51.58359 | -128.28170 | 31342 ft | 520 kts | 120° |
| 2026-05-05 08:29 | 51.56566 | -128.23243 | 31110 ft | 499 kts | 121° |
| 2026-05-05 08:29 | 51.54862 | -128.18569 | 30744 ft | 472 kts | 121° |
| 2026-05-05 08:29 | 51.53236 | -128.14116 | 30397 ft | 451 kts | 121° |
| 2026-05-05 08:30 | 51.50116 | -128.05600 | 29735 ft | 443 kts | 121° |
| 2026-05-05 08:30 | 51.48553 | -128.01344 | 29383 ft | 442 kts | 121° |
| 2026-05-05 08:30 | 51.46991 | -127.97098 | 29027 ft | 441 kts | 121° |
| 2026-05-05 08:30 | 51.45432 | -127.92867 | 28675 ft | 440 kts | 121° |
| 2026-05-05 08:31 | 51.43878 | -127.88656 | 28329 ft | 438 kts | 121° |
| 2026-05-05 08:31 | 51.42329 | -127.84467 | 27991 ft | 436 kts | 121° |
| 2026-05-05 08:31 | 51.40790 | -127.80309 | 27647 ft | 433 kts | 121° |
| 2026-05-05 08:31 | 51.39256 | -127.76171 | 27315 ft | 430 kts | 121° |
| 2026-05-05 08:32 | 51.37730 | -127.72062 | 26986 ft | 427 kts | 121° |
| 2026-05-05 08:32 | 51.36211 | -127.67978 | 26656 ft | 425 kts | 121° |
| 2026-05-05 08:32 | 51.34696 | -127.63914 | 26214 ft | 424 kts | 121° |
| 2026-05-05 08:32 | 51.33185 | -127.59866 | 25729 ft | 423 kts | 120° |
| 2026-05-05 08:33 | 51.31689 | -127.55865 | 25241 ft | 416 kts | 120° |
| 2026-05-05 08:33 | 51.30215 | -127.51927 | 24765 ft | 409 kts | 120° |
| 2026-05-05 08:33 | 51.28761 | -127.48050 | 24302 ft | 404 kts | 120° |
| 2026-05-05 08:33 | 51.27320 | -127.44213 | 23841 ft | 401 kts | 120° |
| 2026-05-05 08:34 | 51.25891 | -127.40413 | 23383 ft | 398 kts | 120° |
| 2026-05-05 08:34 | 51.24470 | -127.36639 | 23005 ft | 396 kts | 120° |
| 2026-05-05 08:34 | 51.23043 | -127.32857 | 22946 ft | 397 kts | 120° |
| 2026-05-05 08:34 | 51.21619 | -127.29085 | 22947 ft | 397 kts | 120° |
| 2026-05-05 08:35 | 51.20211 | -127.25362 | 22934 ft | 397 kts | 120° |
| 2026-05-05 08:35 | 51.18779 | -127.21584 | 22945 ft | 398 kts | 120° |
| 2026-05-05 08:35 | 51.17349 | -127.17815 | 22949 ft | 396 kts | 120° |
| 2026-05-05 08:35 | 51.15920 | -127.14053 | 22954 ft | 397 kts | 120° |
| 2026-05-05 08:36 | 51.14485 | -127.10280 | 22939 ft | 399 kts | 120° |
| 2026-05-05 08:36 | 51.13045 | -127.06501 | 22942 ft | 399 kts | 120° |
| 2026-05-05 08:36 | 51.11605 | -127.02728 | 22940 ft | 399 kts | 120° |
| 2026-05-05 08:36 | 51.10160 | -126.98946 | 22943 ft | 399 kts | 120° |
| 2026-05-05 08:37 | 51.08714 | -126.95166 | 22947 ft | 399 kts | 120° |
| 2026-05-05 08:37 | 51.07288 | -126.91448 | 22928 ft | 398 kts | 120° |
| 2026-05-05 08:37 | 51.05847 | -126.87693 | 22950 ft | 398 kts | 120° |
| 2026-05-05 08:37 | 51.04397 | -126.83920 | 22919 ft | 400 kts | 120° |
| 2026-05-05 08:38 | 51.02952 | -126.80164 | 23290 ft | 397 kts | 120° |
| 2026-05-05 08:38 | 51.01502 | -126.76402 | 22896 ft | 398 kts | 120° |
| 2026-05-05 08:38 | 51.00056 | -126.72658 | 22936 ft | 398 kts | 120° |
| 2026-05-05 08:38 | 50.98605 | -126.68904 | 22970 ft | 402 kts | 120° |
| 2026-05-05 08:39 | 50.97118 | -126.65065 | 22953 ft | 413 kts | 120° |
| 2026-05-05 08:39 | 50.95616 | -126.61195 | 22956 ft | 421 kts | 120° |
| 2026-05-05 08:39 | 50.94065 | -126.57200 | 22947 ft | 428 kts | 120° |
| 2026-05-05 08:39 | 50.92492 | -126.53159 | 22945 ft | 433 kts | 120° |
| 2026-05-05 08:40 | 50.90903 | -126.49079 | 22958 ft | 437 kts | 120° |
| 2026-05-05 08:40 | 50.89319 | -126.45022 | 22929 ft | 428 kts | 120° |
| 2026-05-05 08:40 | 50.87774 | -126.41076 | 22916 ft | 415 kts | 120° |
| 2026-05-05 08:40 | 50.86260 | -126.37213 | 22930 ft | 411 kts | 120° |
| 2026-05-05 08:41 | 50.84750 | -126.33358 | 22633 ft | 414 kts | 120° |
| 2026-05-05 08:41 | 50.83232 | -126.29487 | 22094 ft | 414 kts | 120° |
| 2026-05-05 08:41 | 50.81717 | -126.25633 | 21595 ft | 411 kts | 120° |
| 2026-05-05 08:41 | 50.80213 | -126.21814 | 21081 ft | 407 kts | 120° |
| 2026-05-05 08:42 | 50.78722 | -126.18033 | 20592 ft | 403 kts | 120° |
| 2026-05-05 08:42 | 50.77240 | -126.14281 | 20098 ft | 399 kts | 120° |
| 2026-05-05 08:42 | 50.75774 | -126.10576 | 19638 ft | 398 kts | 120° |
| 2026-05-05 08:42 | 50.74307 | -126.06871 | 19505 ft | 397 kts | 120° |
| 2026-05-05 08:43 | 50.72847 | -126.03192 | 19128 ft | 393 kts | 120° |
| 2026-05-05 08:43 | 50.71403 | -125.99556 | 18760 ft | 388 kts | 120° |
| 2026-05-05 08:43 | 50.69979 | -125.95976 | 18343 ft | 383 kts | 120° |
| 2026-05-05 08:43 | 50.68585 | -125.92474 | 17873 ft | 381 kts | 120° |
| 2026-05-05 08:44 | 50.67175 | -125.88943 | 17340 ft | 379 kts | 120° |
| 2026-05-05 08:44 | 50.65776 | -125.85435 | 16870 ft | 376 kts | 120° |
| 2026-05-05 08:44 | 50.64389 | -125.81963 | 16416 ft | 373 kts | 120° |
| 2026-05-05 08:44 | 50.63007 | -125.78515 | 16064 ft | 372 kts | 120° |
| 2026-05-05 08:45 | 50.61613 | -125.75032 | 16018 ft | 375 kts | 120° |
| 2026-05-05 08:45 | 50.60223 | -125.71567 | 16029 ft | 374 kts | 120° |
| 2026-05-05 08:45 | 50.58838 | -125.68123 | 16017 ft | 372 kts | 120° |
| 2026-05-05 08:45 | 50.57471 | -125.64728 | 16013 ft | 372 kts | 120° |
| 2026-05-05 08:46 | 50.56083 | -125.61287 | 16009 ft | 371 kts | 120° |
| 2026-05-05 08:46 | 50.54697 | -125.57858 | 16023 ft | 371 kts | 120° |
| 2026-05-05 08:46 | 50.53314 | -125.54434 | 16013 ft | 371 kts | 120° |
| 2026-05-05 08:46 | 50.51932 | -125.51014 | 16030 ft | 371 kts | 120° |
| 2026-05-05 08:47 | 50.50543 | -125.47585 | 16019 ft | 372 kts | 120° |
| 2026-05-05 08:47 | 50.49153 | -125.44157 | 16017 ft | 372 kts | 120° |
| 2026-05-05 08:47 | 50.48228 | -125.41879 | 16010 ft | 378 kts | 120° |
| 2026-05-05 08:47 | 50.46781 | -125.38313 | 16024 ft | 394 kts | 120° |
| 2026-05-05 08:48 | 50.45297 | -125.34663 | 16026 ft | 398 kts | 120° |
| 2026-05-05 08:48 | 50.43803 | -125.31001 | 16015 ft | 398 kts | 120° |
| 2026-05-05 08:48 | 50.42306 | -125.27340 | 16010 ft | 397 kts | 120° |
| 2026-05-05 08:48 | 50.40817 | -125.23702 | 16003 ft | 396 kts | 120° |
| 2026-05-05 08:49 | 50.39327 | -125.20064 | 16008 ft | 396 kts | 120° |
| 2026-05-05 08:49 | 50.37841 | -125.16441 | 16010 ft | 396 kts | 120° |
| 2026-05-05 08:49 | 50.36349 | -125.12810 | 15999 ft | 396 kts | 120° |
| 2026-05-05 08:49 | 50.34879 | -125.09233 | 16003 ft | 395 kts | 120° |
| 2026-05-05 08:50 | 50.33390 | -125.05616 | 16001 ft | 395 kts | 120° |
| 2026-05-05 08:50 | 50.31902 | -125.02004 | 16004 ft | 396 kts | 120° |
| 2026-05-05 08:50 | 50.30407 | -124.98382 | 16010 ft | 397 kts | 120° |
| 2026-05-05 08:50 | 50.28905 | -124.94749 | 16002 ft | 397 kts | 120° |
| 2026-05-05 08:51 | 50.27402 | -124.91114 | 16007 ft | 398 kts | 120° |
| 2026-05-05 08:51 | 50.25893 | -124.87474 | 15978 ft | 398 kts | 120° |
| 2026-05-05 08:51 | 50.24392 | -124.83858 | 16000 ft | 396 kts | 120° |
| 2026-05-05 08:51 | 50.22953 | -124.80228 | 16007 ft | 389 kts | 113° |
| 2026-05-05 08:52 | 50.22208 | -124.76181 | 15992 ft | 388 kts | 91° |
| 2026-05-05 08:52 | 50.22412 | -124.72034 | 16021 ft | 382 kts | 73° |
| 2026-05-05 08:52 | 50.23301 | -124.68175 | 16001 ft | 372 kts | 60° |
| 2026-05-05 08:52 | 50.24195 | -124.64401 | 16002 ft | 380 kts | 78° |
| 2026-05-05 08:53 | 50.24069 | -124.60229 | 16015 ft | 394 kts | 102° |
| 2026-05-05 08:53 | 50.22844 | -124.56388 | 16014 ft | 400 kts | 125° |
| 2026-05-05 08:53 | 50.20973 | -124.53164 | 16008 ft | 401 kts | 134° |
| 2026-05-05 08:53 | 50.18948 | -124.50170 | 16019 ft | 400 kts | 135° |
| 2026-05-05 08:54 | 50.16950 | -124.47168 | 16015 ft | 397 kts | 133° |
| 2026-05-05 08:54 | 50.15048 | -124.44118 | 15996 ft | 394 kts | 131° |
| 2026-05-05 08:54 | 50.13227 | -124.41016 | 15896 ft | 380 kts | 129° |
| 2026-05-05 08:54 | 50.11519 | -124.37969 | 15641 ft | 370 kts | 128° |
| 2026-05-05 08:55 | 50.09851 | -124.34908 | 15036 ft | 371 kts | 128° |
| 2026-05-05 08:55 | 50.08192 | -124.31818 | 14412 ft | 373 kts | 128° |
| 2026-05-05 08:55 | 50.06532 | -124.28707 | 13790 ft | 375 kts | 128° |
| 2026-05-05 08:55 | 50.04866 | -124.25587 | 12977 ft | 373 kts | 128° |
| 2026-05-05 08:56 | 50.03217 | -124.22496 | 12412 ft | 369 kts | 128° |
| 2026-05-05 08:56 | 50.01580 | -124.19431 | 11839 ft | 366 kts | 128° |
| 2026-05-05 08:56 | 49.99978 | -124.16440 | 11631 ft | 353 kts | 128° |
| 2026-05-05 08:56 | 49.98442 | -124.13578 | 11514 ft | 338 kts | 128° |
| 2026-05-05 08:57 | 49.96962 | -124.10823 | 11509 ft | 331 kts | 129° |
| 2026-05-05 08:57 | 49.95477 | -124.08059 | 11501 ft | 334 kts | 129° |
| 2026-05-05 08:57 | 49.93991 | -124.05294 | 11507 ft | 331 kts | 128° |
| 2026-05-05 08:57 | 49.92519 | -124.02560 | 11507 ft | 329 kts | 129° |
| 2026-05-05 08:58 | 49.91070 | -123.99872 | 11507 ft | 328 kts | 129° |
| 2026-05-05 08:58 | 49.89586 | -123.97120 | 11506 ft | 328 kts | 129° |
| 2026-05-05 08:58 | 49.88137 | -123.94439 | 11504 ft | 329 kts | 129° |
| 2026-05-05 08:58 | 49.86667 | -123.91721 | 11500 ft | 329 kts | 128° |
| 2026-05-05 08:59 | 49.85193 | -123.89002 | 11514 ft | 328 kts | 129° |
| 2026-05-05 08:59 | 49.83724 | -123.86290 | 11517 ft | 328 kts | 129° |
| 2026-05-05 08:59 | 49.82254 | -123.83576 | 11509 ft | 328 kts | 129° |
| 2026-05-05 08:59 | 49.80782 | -123.80868 | 11513 ft | 329 kts | 129° |
| 2026-05-05 09:00 | 49.79306 | -123.78154 | 11504 ft | 330 kts | 129° |
| 2026-05-05 09:00 | 49.77850 | -123.75479 | 11510 ft | 330 kts | 129° |
| 2026-05-05 09:00 | 49.76371 | -123.72764 | 11500 ft | 330 kts | 129° |
| 2026-05-05 09:00 | 49.74893 | -123.70054 | 11495 ft | 330 kts | 129° |
| 2026-05-05 09:01 | 49.73404 | -123.67323 | 11222 ft | 333 kts | 129° |
| 2026-05-05 09:01 | 49.71892 | -123.64553 | 10548 ft | 341 kts | 129° |
| 2026-05-05 09:01 | 49.70348 | -123.61732 | 9840 ft | 345 kts | 130° |
| 2026-05-05 09:01 | 49.68805 | -123.58914 | 9330 ft | 341 kts | 130° |
| 2026-05-05 09:02 | 49.67303 | -123.56175 | 9112 ft | 327 kts | 130° |
| 2026-05-05 09:02 | 49.65858 | -123.53542 | 9005 ft | 314 kts | 130° |
| 2026-05-05 09:02 | 49.64450 | -123.50980 | 9008 ft | 312 kts | 130° |
| 2026-05-05 09:02 | 49.63038 | -123.48418 | 9005 ft | 311 kts | 131° |
| 2026-05-05 09:03 | 49.61376 | -123.46336 | 8996 ft | 312 kts | 154° |
| 2026-05-05 09:03 | 49.59281 | -123.45471 | 9001 ft | 311 kts | 174° |
| 2026-05-05 09:03 | 49.57132 | -123.45142 | 8991 ft | 305 kts | 174° |
| 2026-05-05 09:03 | 49.55103 | -123.44778 | 8977 ft | 291 kts | 173° |
| 2026-05-05 09:04 | 49.53112 | -123.44406 | 8974 ft | 281 kts | 173° |
| 2026-05-05 09:04 | 49.51181 | -123.44047 | 8989 ft | 285 kts | 173° |
| 2026-05-05 09:04 | 49.49221 | -123.43685 | 8992 ft | 283 kts | 173° |
| 2026-05-05 09:04 | 49.47271 | -123.43324 | 8988 ft | 281 kts | 173° |
| 2026-05-05 09:05 | 49.45339 | -123.43005 | 8981 ft | 277 kts | 179° |
| 2026-05-05 09:05 | 49.43405 | -123.43290 | 9004 ft | 282 kts | 190° |
| 2026-05-05 09:05 | 49.41458 | -123.43858 | 8849 ft | 288 kts | 191° |
| 2026-05-05 09:05 | 49.39456 | -123.44430 | 8266 ft | 298 kts | 190° |
| 2026-05-05 09:06 | 49.37381 | -123.44994 | 7529 ft | 304 kts | 192° |
| 2026-05-05 09:06 | 49.35429 | -123.46214 | 6780 ft | 308 kts | 217° |
| 2026-05-05 09:06 | 49.34033 | -123.48686 | 6076 ft | 311 kts | 244° |
| 2026-05-05 09:06 | 49.33450 | -123.51875 | 5341 ft | 313 kts | 268° |
| 2026-05-05 09:07 | 49.33631 | -123.55151 | 4619 ft | 307 kts | 282° |
| 2026-05-05 09:07 | 49.34003 | -123.58353 | 3901 ft | 311 kts | 281° |
| 2026-05-05 09:07 | 49.34362 | -123.61623 | 3391 ft | 308 kts | 279° |
| 2026-05-05 09:07 | 49.34562 | -123.64775 | 3144 ft | 286 kts | 264° |
| 2026-05-05 09:08 | 49.33852 | -123.67494 | 2994 ft | 270 kts | 229° |
| 2026-05-05 09:08 | 49.32342 | -123.68980 | 2987 ft | 256 kts | 192° |
| 2026-05-05 09:08 | 49.30737 | -123.68874 | 2975 ft | 252 kts | 158° |
| 2026-05-05 09:08 | 49.29378 | -123.67262 | 2988 ft | 251 kts | 124° |
| 2026-05-05 09:09 | 49.28528 | -123.64947 | 2978 ft | 250 kts | 120° |
| 2026-05-05 09:09 | 49.27563 | -123.62692 | 2994 ft | 256 kts | 123° |
| 2026-05-05 09:09 | 49.26553 | -123.60437 | 2989 ft | 255 kts | 123° |
| 2026-05-05 09:09 | 49.25571 | -123.58196 | 2975 ft | 252 kts | 123° |
| 2026-05-05 09:10 | 49.24608 | -123.55959 | 2976 ft | 251 kts | 123° |
| 2026-05-05 09:10 | 49.23654 | -123.53728 | 2989 ft | 251 kts | 122° |
| 2026-05-05 09:10 | 49.22717 | -123.51479 | 2986 ft | 248 kts | 117° |
| 2026-05-05 09:10 | 49.22182 | -123.48985 | 2992 ft | 247 kts | 101° |
| 2026-05-05 09:11 | 49.21899 | -123.46423 | 2995 ft | 249 kts | 98° |
| 2026-05-05 09:11 | 49.21622 | -123.43789 | 2998 ft | 253 kts | 99° |
| 2026-05-05 09:11 | 49.21323 | -123.41121 | 2657 ft | 253 kts | 99° |
| 2026-05-05 09:11 | 49.21024 | -123.38507 | 2331 ft | 246 kts | 99° |
| 2026-05-05 09:12 | 49.20738 | -123.35986 | 1998 ft | 231 kts | 99° |
| 2026-05-05 09:12 | 49.20481 | -123.33723 | 1716 ft | 200 kts | 99° |
| 2026-05-05 09:12 | 49.20257 | -123.31764 | 1463 ft | 176 kts | 99° |
| 2026-05-05 09:12 | 49.20051 | -123.29941 | 1304 ft | 175 kts | 99° |
| 2026-05-05 09:13 | 49.19845 | -123.28130 | 1050 ft | 165 kts | 100° |
| 2026-05-05 09:13 | 49.19660 | -123.26510 | 836 ft | 145 kts | 100° |
| 2026-05-05 09:13 | 49.19507 | -123.25055 | 623 ft | 134 kts | 98° |
| 2026-05-05 09:13 | 49.19370 | -123.23656 | 476 ft | 135 kts | 99° |
| 2026-05-05 09:14 | 49.19199 | -123.22222 | 282 ft | 136 kts | 101° |
| 2026-05-05 09:14 | 49.19028 | -123.20816 | 106 ft | 134 kts | 101° |
| 2026-05-05 09:14 | 49.18857 | -123.19435 | 27 ft | 126 kts | 100° |
| 2026-05-05 09:14 | 49.18738 | -123.18393 | 24 ft | 75 kts | 100° |
| 2026-05-05 09:15 | 49.18681 | -123.17890 | 24 ft | 21 kts | 99° |
| 2026-05-05 09:15 | 49.18684 | -123.17661 | 26 ft | 33 kts | 84° |
| 2026-05-05 09:15 | 49.18736 | -123.17373 | 27 ft | 23 kts | 70° |
| 2026-05-05 09:15 | 49.18811 | -123.17298 | 24 ft | 17 kts | 320° |
| 2026-05-05 09:16 | 49.18852 | -123.17548 | 26 ft | 29 kts | 280° |
| 2026-05-05 09:16 | 49.18881 | -123.17806 | 26 ft | 28 kts | 280° |
| 2026-05-05 09:16 | 49.18913 | -123.18035 | 26 ft | 18 kts | 302° |
| 2026-05-05 09:16 | 49.19035 | -123.18049 | 23 ft | 15 kts | 6° |
| 2026-05-05 09:17 | 49.19103 | -123.18098 | 25 ft | 9 kts | 308° |
| 2026-05-05 09:17 | 49.19132 | -123.18220 | 25 ft | 4 kts | 313° |
| 2026-05-05 09:17 | 49.19164 | -123.18225 | 24 ft | 9 kts | 14° |
| 2026-05-05 09:17 | 49.19197 | -123.18213 | 24 ft | 0 kts | 14° |